N650AN KIAD-MMSD
Flight info
| Callsign | N650AN |
|---|---|
| Flight time | 4h 21m |
| Altitude | 43000 |
| Route | CLTCH3 MAULS Q40 AEX DCT PSX DCT LRD J22 NLD UJ20 DGO UT71 TENAY TENAY1B |
| Aircraft | GLF6/M-SBDE2E3FGHIJ4J5M1RWXY/LB1D1 |
Departure
| Time | 2026-04-13 20:13 |
|---|---|
| Airport | Washington Dulles International Airport (KIAD) |
Arrival
| Time | 2026-04-14 00:35 |
|---|---|
| Airport | Los Cabos International Airport (MMSD) |
| Time | Latitude | Longitude | Altitude | Speed | Heading |
|---|---|---|---|---|---|
| 2026-04-13 20:02 | 38.95365 | -77.44127 | 295 ft | 0 kts | 1° |
| 2026-04-13 20:04 | 38.95366 | -77.44127 | 295 ft | 0 kts | 1° |
| 2026-04-13 20:04 | 38.95381 | -77.44107 | 295 ft | 7 kts | 73° |
| 2026-04-13 20:04 | 38.95351 | -77.44016 | 296 ft | 12 kts | 97° |
| 2026-04-13 20:04 | 38.95309 | -77.43961 | 296 ft | 9 kts | 182° |
| 2026-04-13 20:05 | 38.95244 | -77.43962 | 297 ft | 8 kts | 181° |
| 2026-04-13 20:05 | 38.95190 | -77.43963 | 297 ft | 6 kts | 181° |
| 2026-04-13 20:05 | 38.95146 | -77.43963 | 297 ft | 5 kts | 181° |
| 2026-04-13 20:05 | 38.95108 | -77.43964 | 297 ft | 6 kts | 181° |
| 2026-04-13 20:06 | 38.95011 | -77.43966 | 298 ft | 23 kts | 182° |
| 2026-04-13 20:06 | 38.94843 | -77.43968 | 299 ft | 21 kts | 181° |
| 2026-04-13 20:06 | 38.94701 | -77.43965 | 301 ft | 19 kts | 178° |
| 2026-04-13 20:06 | 38.94578 | -77.43971 | 302 ft | 16 kts | 181° |
| 2026-04-13 20:07 | 38.94472 | -77.43973 | 303 ft | 13 kts | 180° |
| 2026-04-13 20:07 | 38.94382 | -77.43973 | 303 ft | 11 kts | 180° |
| 2026-04-13 20:07 | 38.94305 | -77.43973 | 304 ft | 9 kts | 180° |
| 2026-04-13 20:07 | 38.94237 | -77.43974 | 305 ft | 11 kts | 182° |
| 2026-04-13 20:08 | 38.94117 | -77.43994 | 305 ft | 21 kts | 218° |
| 2026-04-13 20:08 | 38.94104 | -77.44183 | 303 ft | 21 kts | 271° |
| 2026-04-13 20:08 | 38.94107 | -77.44374 | 301 ft | 21 kts | 273° |
| 2026-04-13 20:08 | 38.94108 | -77.44562 | 300 ft | 20 kts | 270° |
| 2026-04-13 20:09 | 38.94108 | -77.44743 | 299 ft | 20 kts | 268° |
| 2026-04-13 20:09 | 38.94107 | -77.44920 | 297 ft | 19 kts | 270° |
| 2026-04-13 20:09 | 38.94111 | -77.45095 | 296 ft | 20 kts | 271° |
| 2026-04-13 20:09 | 38.94115 | -77.45301 | 295 ft | 23 kts | 271° |
| 2026-04-13 20:10 | 38.94118 | -77.45481 | 294 ft | 19 kts | 272° |
| 2026-04-13 20:10 | 38.94085 | -77.45622 | 293 ft | 16 kts | 187° |
| 2026-04-13 20:10 | 38.93978 | -77.45618 | 293 ft | 14 kts | 180° |
| 2026-04-13 20:10 | 38.93874 | -77.45617 | 292 ft | 14 kts | 182° |
| 2026-04-13 20:11 | 38.93770 | -77.45621 | 290 ft | 15 kts | 181° |
| 2026-04-13 20:11 | 38.93663 | -77.45644 | 289 ft | 16 kts | 203° |
| 2026-04-13 20:11 | 38.93553 | -77.45702 | 287 ft | 17 kts | 201° |
| 2026-04-13 20:11 | 38.93432 | -77.45758 | 286 ft | 11 kts | 200° |
| 2026-04-13 20:12 | 38.93421 | -77.45796 | 286 ft | 4 kts | 291° |
| 2026-04-13 20:12 | 38.93422 | -77.45798 | 286 ft | 0 kts | 291° |
| 2026-04-13 20:13 | 38.93425 | -77.45810 | 286 ft | 12 kts | 291° |
| 2026-04-13 20:13 | 38.93584 | -77.46344 | 291 ft | 116 kts | 289° |
| 2026-04-13 20:13 | 38.93942 | -77.47543 | 883 ft | 152 kts | 287° |
| 2026-04-13 20:13 | 38.94020 | -77.48729 | 2028 ft | 144 kts | 252° |
| 2026-04-13 20:14 | 38.93262 | -77.49797 | 2507 ft | 191 kts | 202° |
| 2026-04-13 20:14 | 38.91886 | -77.49828 | 3355 ft | 225 kts | 181° |
| 2026-04-13 20:14 | 38.90207 | -77.49605 | 4187 ft | 255 kts | 180° |
| 2026-04-13 20:14 | 38.88384 | -77.49356 | 5359 ft | 271 kts | 180° |
| 2026-04-13 20:15 | 38.86570 | -77.49645 | 6531 ft | 268 kts | 211° |
| 2026-04-13 20:15 | 38.84966 | -77.50816 | 7895 ft | 269 kts | 218° |
| 2026-04-13 20:15 | 38.83405 | -77.52091 | 9147 ft | 277 kts | 219° |
| 2026-04-13 20:15 | 38.81815 | -77.53446 | 10492 ft | 282 kts | 220° |
| 2026-04-13 20:16 | 38.80054 | -77.55001 | 10591 ft | 332 kts | 220° |
| 2026-04-13 20:16 | 38.78054 | -77.56773 | 11401 ft | 355 kts | 220° |
| 2026-04-13 20:16 | 38.75982 | -77.58617 | 12420 ft | 368 kts | 220° |
| 2026-04-13 20:16 | 38.73870 | -77.60503 | 13689 ft | 374 kts | 220° |
| 2026-04-13 20:17 | 38.71729 | -77.62419 | 14875 ft | 381 kts | 220° |
| 2026-04-13 20:17 | 38.69519 | -77.64397 | 16014 ft | 389 kts | 220° |
| 2026-04-13 20:17 | 38.67271 | -77.66409 | 17177 ft | 395 kts | 219° |
| 2026-04-13 20:17 | 38.65419 | -77.68065 | 18148 ft | 400 kts | 220° |
| 2026-04-13 20:18 | 38.63110 | -77.70128 | 19426 ft | 404 kts | 220° |
| 2026-04-13 20:18 | 38.60776 | -77.72212 | 20637 ft | 409 kts | 220° |
| 2026-04-13 20:18 | 38.58543 | -77.74203 | 21801 ft | 412 kts | 220° |
| 2026-04-13 20:18 | 38.56220 | -77.76276 | 22866 ft | 417 kts | 220° |
| 2026-04-13 20:19 | 38.53798 | -77.78434 | 23940 ft | 424 kts | 220° |
| 2026-04-13 20:19 | 38.51618 | -77.80917 | 25062 ft | 419 kts | 232° |
| 2026-04-13 20:19 | 38.49660 | -77.83669 | 25941 ft | 426 kts | 232° |
| 2026-04-13 20:19 | 38.47644 | -77.86504 | 26909 ft | 432 kts | 233° |
| 2026-04-13 20:20 | 38.45607 | -77.89370 | 27805 ft | 438 kts | 233° |
| 2026-04-13 20:20 | 38.43715 | -77.92423 | 28741 ft | 436 kts | 239° |
| 2026-04-13 20:20 | 38.41966 | -77.95602 | 29466 ft | 444 kts | 239° |
| 2026-04-13 20:20 | 38.40165 | -77.98859 | 30340 ft | 447 kts | 239° |
| 2026-04-13 20:21 | 38.38353 | -78.02131 | 31077 ft | 453 kts | 239° |
| 2026-04-13 20:21 | 38.36553 | -78.05373 | 32127 ft | 450 kts | 239° |
| 2026-04-13 20:21 | 38.34742 | -78.08630 | 33011 ft | 450 kts | 239° |
| 2026-04-13 20:21 | 38.34349 | -78.09337 | 33251 ft | 449 kts | 239° |
| 2026-04-13 20:22 | 38.32533 | -78.12604 | 34142 ft | 448 kts | 239° |
| 2026-04-13 20:22 | 38.30738 | -78.15824 | 35290 ft | 443 kts | 239° |
| 2026-04-13 20:22 | 38.28966 | -78.19004 | 36229 ft | 441 kts | 239° |
| 2026-04-13 20:22 | 38.27185 | -78.22200 | 37171 ft | 440 kts | 238° |
| 2026-04-13 20:23 | 38.25413 | -78.25369 | 38053 ft | 439 kts | 239° |
| 2026-04-13 20:23 | 38.23616 | -78.28584 | 38916 ft | 437 kts | 239° |
| 2026-04-13 20:23 | 38.21851 | -78.31738 | 39774 ft | 435 kts | 239° |
| 2026-04-13 20:23 | 38.20070 | -78.34920 | 40415 ft | 436 kts | 239° |
| 2026-04-13 20:24 | 38.18301 | -78.38080 | 41095 ft | 434 kts | 239° |
| 2026-04-13 20:24 | 38.16898 | -78.41560 | 41626 ft | 430 kts | 251° |
| 2026-04-13 20:24 | 38.15785 | -78.45165 | 42262 ft | 429 kts | 251° |
| 2026-04-13 20:24 | 38.14694 | -78.48673 | 42832 ft | 429 kts | 251° |
| 2026-04-13 20:25 | 38.13583 | -78.52242 | 43210 ft | 430 kts | 251° |
| 2026-04-13 20:25 | 38.12470 | -78.55816 | 43170 ft | 441 kts | 251° |
| 2026-04-13 20:25 | 38.10165 | -78.63187 | 43183 ft | 452 kts | 251° |
| 2026-04-13 20:26 | 38.07868 | -78.70519 | 43185 ft | 454 kts | 250° |
| 2026-04-13 20:26 | 38.05506 | -78.78036 | 43195 ft | 453 kts | 250° |
| 2026-04-13 20:27 | 38.03170 | -78.85450 | 43208 ft | 453 kts | 250° |
| 2026-04-13 20:27 | 38.00816 | -78.92905 | 43187 ft | 452 kts | 250° |
| 2026-04-13 20:28 | 37.98468 | -79.00314 | 43208 ft | 453 kts | 250° |
| 2026-04-13 20:28 | 37.96114 | -79.07729 | 43216 ft | 453 kts | 250° |
| 2026-04-13 20:29 | 37.93738 | -79.15194 | 43216 ft | 453 kts | 250° |
| 2026-04-13 20:29 | 37.91375 | -79.22597 | 43191 ft | 452 kts | 250° |
| 2026-04-13 20:30 | 37.89024 | -79.29943 | 43231 ft | 452 kts | 250° |
| 2026-04-13 20:30 | 37.87734 | -79.33544 | 43176 ft | 455 kts | 243° |
| 2026-04-13 20:31 | 37.84704 | -79.39613 | 43210 ft | 457 kts | 241° |
| 2026-04-13 20:31 | 37.81228 | -79.46486 | 43215 ft | 459 kts | 241° |
| 2026-04-13 20:32 | 37.77780 | -79.53286 | 43217 ft | 457 kts | 240° |
| 2026-04-13 20:32 | 37.74292 | -79.60149 | 43210 ft | 458 kts | 241° |
| 2026-04-13 20:33 | 37.71228 | -79.66166 | 43217 ft | 459 kts | 240° |
| 2026-04-13 20:33 | 37.68280 | -79.71944 | 43239 ft | 460 kts | 240° |
| 2026-04-13 20:34 | 37.64849 | -79.78658 | 43246 ft | 459 kts | 240° |
| 2026-04-13 20:34 | 37.61375 | -79.85438 | 43235 ft | 459 kts | 240° |
| 2026-04-13 20:35 | 37.57899 | -79.92216 | 43227 ft | 460 kts | 240° |
| 2026-04-13 20:35 | 37.54416 | -79.98988 | 43284 ft | 461 kts | 240° |
| 2026-04-13 20:36 | 37.50973 | -80.05668 | 43278 ft | 459 kts | 240° |
| 2026-04-13 20:36 | 37.47478 | -80.12438 | 43278 ft | 460 kts | 240° |
| 2026-04-13 20:37 | 37.43989 | -80.19180 | 43257 ft | 461 kts | 240° |
| 2026-04-13 20:37 | 37.40477 | -80.25957 | 43255 ft | 461 kts | 240° |
| 2026-04-13 20:38 | 37.36961 | -80.32724 | 43256 ft | 460 kts | 240° |
| 2026-04-13 20:38 | 37.33464 | -80.39442 | 43294 ft | 461 kts | 240° |
| 2026-04-13 20:39 | 37.29930 | -80.46215 | 43306 ft | 461 kts | 240° |
| 2026-04-13 20:39 | 37.26447 | -80.53040 | 43320 ft | 460 kts | 242° |
| 2026-04-13 20:40 | 37.23145 | -80.59943 | 43299 ft | 460 kts | 242° |
| 2026-04-13 20:40 | 37.19814 | -80.66872 | 43322 ft | 461 kts | 241° |
| 2026-04-13 20:41 | 37.16764 | -80.73203 | 43314 ft | 461 kts | 241° |
| 2026-04-13 20:41 | 37.13429 | -80.80114 | 43313 ft | 461 kts | 242° |
| 2026-04-13 20:42 | 37.10097 | -80.87003 | 43310 ft | 461 kts | 241° |
| 2026-04-13 20:42 | 37.06739 | -80.93929 | 43277 ft | 461 kts | 241° |
| 2026-04-13 20:43 | 37.03390 | -81.00826 | 43303 ft | 460 kts | 241° |
| 2026-04-13 20:43 | 37.00045 | -81.07700 | 43309 ft | 460 kts | 241° |
| 2026-04-13 20:44 | 36.96687 | -81.14584 | 43314 ft | 460 kts | 241° |
| 2026-04-13 20:44 | 36.93317 | -81.21479 | 43367 ft | 460 kts | 241° |
| 2026-04-13 20:45 | 36.89957 | -81.28339 | 43373 ft | 462 kts | 241° |
| 2026-04-13 20:46 | 36.86046 | -81.36311 | 43358 ft | 461 kts | 241° |
| 2026-04-13 20:46 | 36.83146 | -81.42206 | 43339 ft | 460 kts | 241° |
| 2026-04-13 20:47 | 36.79776 | -81.49045 | 43379 ft | 461 kts | 241° |
| 2026-04-13 20:47 | 36.76398 | -81.55885 | 43311 ft | 463 kts | 241° |
| 2026-04-13 20:48 | 36.73014 | -81.62719 | 43273 ft | 462 kts | 240° |
| 2026-04-13 20:48 | 36.69991 | -81.68621 | 43287 ft | 463 kts | 240° |
| 2026-04-13 20:49 | 36.66620 | -81.75196 | 43308 ft | 463 kts | 240° |
| 2026-04-13 20:49 | 36.63148 | -81.81952 | 43319 ft | 463 kts | 240° |
| 2026-04-13 20:50 | 36.59647 | -81.88752 | 43328 ft | 463 kts | 240° |
| 2026-04-13 20:50 | 36.56154 | -81.95524 | 43324 ft | 462 kts | 239° |
| 2026-04-13 20:51 | 36.52663 | -82.02279 | 43330 ft | 464 kts | 239° |
| 2026-04-13 20:51 | 36.49167 | -82.09026 | 43316 ft | 465 kts | 240° |
| 2026-04-13 20:52 | 36.45653 | -82.15798 | 43310 ft | 464 kts | 240° |
| 2026-04-13 20:52 | 36.42168 | -82.22501 | 43301 ft | 464 kts | 240° |
| 2026-04-13 20:53 | 36.38638 | -82.29277 | 43305 ft | 465 kts | 240° |
| 2026-04-13 20:53 | 36.35102 | -82.36046 | 43304 ft | 466 kts | 240° |
| 2026-04-13 20:54 | 36.31575 | -82.42792 | 43297 ft | 466 kts | 240° |
| 2026-04-13 20:54 | 36.28027 | -82.49559 | 43295 ft | 465 kts | 240° |
| 2026-04-13 20:55 | 36.24503 | -82.56271 | 43296 ft | 466 kts | 240° |
| 2026-04-13 20:55 | 36.20951 | -82.63018 | 43291 ft | 466 kts | 240° |
| 2026-04-13 20:56 | 36.17746 | -82.69097 | 43312 ft | 466 kts | 239° |
| 2026-04-13 20:56 | 36.14298 | -82.75626 | 43304 ft | 467 kts | 239° |
| 2026-04-13 20:57 | 36.10737 | -82.82355 | 43305 ft | 467 kts | 239° |
| 2026-04-13 20:57 | 36.07161 | -82.89101 | 43299 ft | 467 kts | 239° |
| 2026-04-13 20:58 | 36.03606 | -82.95789 | 43292 ft | 468 kts | 239° |
| 2026-04-13 20:58 | 36.00030 | -83.02506 | 43280 ft | 466 kts | 239° |
| 2026-04-13 20:59 | 35.96444 | -83.09232 | 43255 ft | 468 kts | 239° |
| 2026-04-13 20:59 | 35.92861 | -83.15936 | 43260 ft | 468 kts | 239° |
| 2026-04-13 21:00 | 35.89378 | -83.22813 | 43272 ft | 467 kts | 242° |
| 2026-04-13 21:00 | 35.87015 | -83.27615 | 43289 ft | 467 kts | 241° |
| 2026-04-13 21:01 | 35.83967 | -83.33792 | 43290 ft | 466 kts | 241° |
| 2026-04-13 21:01 | 35.80580 | -83.40638 | 43288 ft | 467 kts | 241° |
| 2026-04-13 21:02 | 35.77182 | -83.47498 | 43282 ft | 467 kts | 241° |
| 2026-04-13 21:02 | 35.73788 | -83.54323 | 43290 ft | 468 kts | 240° |
| 2026-04-13 21:03 | 35.70182 | -83.61005 | 43268 ft | 469 kts | 239° |
| 2026-04-13 21:03 | 35.66615 | -83.67600 | 43284 ft | 470 kts | 239° |
| 2026-04-13 21:04 | 35.63303 | -83.73713 | 43309 ft | 469 kts | 239° |
| 2026-04-13 21:04 | 35.59670 | -83.80409 | 43285 ft | 469 kts | 238° |
| 2026-04-13 21:05 | 35.56015 | -83.87129 | 43292 ft | 468 kts | 238° |
| 2026-04-13 21:05 | 35.52384 | -83.93794 | 43298 ft | 468 kts | 239° |
| 2026-04-13 21:06 | 35.48736 | -84.00478 | 43282 ft | 471 kts | 238° |
| 2026-04-13 21:06 | 35.45069 | -84.07183 | 43285 ft | 469 kts | 239° |
| 2026-04-13 21:07 | 35.41407 | -84.13865 | 43303 ft | 469 kts | 238° |
| 2026-04-13 21:07 | 35.37717 | -84.20587 | 43292 ft | 470 kts | 239° |
| 2026-04-13 21:08 | 35.34032 | -84.27286 | 43295 ft | 472 kts | 238° |
| 2026-04-13 21:08 | 35.30327 | -84.34010 | 43297 ft | 472 kts | 238° |
| 2026-04-13 21:09 | 35.26646 | -84.40677 | 43312 ft | 471 kts | 238° |
| 2026-04-13 21:09 | 35.22969 | -84.47324 | 43304 ft | 472 kts | 238° |
| 2026-04-13 21:10 | 35.19275 | -84.53989 | 43302 ft | 473 kts | 238° |
| 2026-04-13 21:10 | 35.15576 | -84.60649 | 43266 ft | 472 kts | 238° |
| 2026-04-13 21:11 | 35.12158 | -84.66792 | 43281 ft | 473 kts | 238° |
| 2026-04-13 21:11 | 35.09717 | -84.71174 | 43259 ft | 474 kts | 238° |
| 2026-04-13 21:12 | 35.06054 | -84.77739 | 43270 ft | 474 kts | 238° |
| 2026-04-13 21:12 | 35.02336 | -84.84388 | 43283 ft | 473 kts | 238° |
| 2026-04-13 21:13 | 34.98609 | -84.91045 | 43262 ft | 473 kts | 238° |
| 2026-04-13 21:13 | 34.94883 | -84.97682 | 43295 ft | 475 kts | 238° |
| 2026-04-13 21:14 | 34.91133 | -85.04353 | 43306 ft | 474 kts | 238° |
| 2026-04-13 21:14 | 34.87803 | -85.10265 | 43308 ft | 474 kts | 238° |
| 2026-04-13 21:15 | 34.84126 | -85.16781 | 43303 ft | 474 kts | 238° |
| 2026-04-13 21:15 | 34.80341 | -85.23478 | 43294 ft | 475 kts | 238° |
| 2026-04-13 21:16 | 34.76591 | -85.30096 | 43293 ft | 475 kts | 238° |
| 2026-04-13 21:16 | 34.72840 | -85.36703 | 43288 ft | 475 kts | 238° |
| 2026-04-13 21:17 | 34.69089 | -85.43295 | 43263 ft | 474 kts | 238° |
| 2026-04-13 21:17 | 34.65306 | -85.49931 | 43248 ft | 475 kts | 238° |
| 2026-04-13 21:18 | 34.61546 | -85.56517 | 43261 ft | 474 kts | 238° |
| 2026-04-13 21:18 | 34.57784 | -85.63090 | 43259 ft | 473 kts | 238° |
| 2026-04-13 21:19 | 34.54103 | -85.69517 | 43266 ft | 474 kts | 237° |
| 2026-04-13 21:19 | 34.50296 | -85.76145 | 43267 ft | 475 kts | 237° |
| 2026-04-13 21:20 | 34.46493 | -85.82755 | 43266 ft | 475 kts | 237° |
| 2026-04-13 21:20 | 34.42721 | -85.89302 | 43272 ft | 473 kts | 237° |
| 2026-04-13 21:21 | 34.38940 | -85.95849 | 43265 ft | 474 kts | 237° |
| 2026-04-13 21:21 | 34.35143 | -86.02414 | 43259 ft | 475 kts | 237° |
| 2026-04-13 21:22 | 34.31347 | -86.08965 | 43252 ft | 474 kts | 237° |
| 2026-04-13 21:22 | 34.27526 | -86.15548 | 43257 ft | 474 kts | 237° |
| 2026-04-13 21:23 | 34.23711 | -86.22107 | 43259 ft | 475 kts | 237° |
| 2026-04-13 21:23 | 34.19916 | -86.28620 | 43254 ft | 475 kts | 237° |
| 2026-04-13 21:24 | 34.16092 | -86.35171 | 43241 ft | 475 kts | 237° |
| 2026-04-13 21:24 | 34.12288 | -86.41676 | 43265 ft | 476 kts | 237° |
| 2026-04-13 21:25 | 34.08455 | -86.48219 | 43254 ft | 476 kts | 237° |
| 2026-04-13 21:25 | 34.04638 | -86.54726 | 43242 ft | 474 kts | 237° |
| 2026-04-13 21:26 | 34.00782 | -86.61298 | 43252 ft | 476 kts | 237° |
| 2026-04-13 21:26 | 33.97080 | -86.67594 | 43232 ft | 477 kts | 237° |
| 2026-04-13 21:27 | 33.93286 | -86.74035 | 43244 ft | 477 kts | 237° |
| 2026-04-13 21:27 | 33.89424 | -86.80579 | 43226 ft | 478 kts | 237° |
| 2026-04-13 21:28 | 33.85603 | -86.87044 | 43279 ft | 478 kts | 237° |
| 2026-04-13 21:28 | 33.81748 | -86.93554 | 43250 ft | 478 kts | 237° |
| 2026-04-13 21:29 | 33.77883 | -87.00069 | 43276 ft | 476 kts | 237° |
| 2026-04-13 21:29 | 33.73991 | -87.06619 | 43241 ft | 479 kts | 237° |
| 2026-04-13 21:30 | 33.70134 | -87.13094 | 43269 ft | 478 kts | 237° |
| 2026-04-13 21:30 | 33.66260 | -87.19591 | 43231 ft | 480 kts | 237° |
| 2026-04-13 21:31 | 33.62326 | -87.26175 | 43224 ft | 478 kts | 237° |
| 2026-04-13 21:31 | 33.58451 | -87.32650 | 43224 ft | 478 kts | 237° |
| 2026-04-13 21:32 | 33.54542 | -87.39169 | 43231 ft | 479 kts | 237° |
| 2026-04-13 21:32 | 33.50632 | -87.45676 | 43248 ft | 479 kts | 237° |
| 2026-04-13 21:33 | 33.47990 | -87.50069 | 43241 ft | 479 kts | 237° |
| 2026-04-13 21:33 | 33.44906 | -87.55190 | 43261 ft | 479 kts | 237° |
| 2026-04-13 21:34 | 33.39225 | -87.65034 | 43274 ft | 476 kts | 244° |
| 2026-04-13 21:34 | 33.36180 | -87.72141 | 43260 ft | 477 kts | 244° |
| 2026-04-13 21:35 | 33.33113 | -87.79227 | 43292 ft | 476 kts | 244° |
| 2026-04-13 21:36 | 33.28514 | -87.89814 | 43237 ft | 479 kts | 244° |
| 2026-04-13 21:36 | 33.25431 | -87.96891 | 43210 ft | 478 kts | 244° |
| 2026-04-13 21:37 | 33.22351 | -88.03947 | 43195 ft | 478 kts | 244° |
| 2026-04-13 21:37 | 33.19257 | -88.11025 | 43179 ft | 478 kts | 244° |
| 2026-04-13 21:38 | 33.16156 | -88.18100 | 43186 ft | 477 kts | 244° |
| 2026-04-13 21:38 | 33.13009 | -88.25269 | 43190 ft | 478 kts | 244° |
| 2026-04-13 21:39 | 33.09925 | -88.32278 | 43194 ft | 478 kts | 244° |
| 2026-04-13 21:39 | 33.06818 | -88.39326 | 43186 ft | 479 kts | 244° |
| 2026-04-13 21:40 | 33.03674 | -88.46446 | 43190 ft | 478 kts | 244° |
| 2026-04-13 21:40 | 33.00568 | -88.53462 | 43187 ft | 478 kts | 244° |
| 2026-04-13 21:41 | 32.97407 | -88.60588 | 43179 ft | 478 kts | 244° |
| 2026-04-13 21:41 | 32.94249 | -88.67699 | 43218 ft | 478 kts | 243° |
| 2026-04-13 21:42 | 32.91857 | -88.73072 | 43275 ft | 478 kts | 244° |
| 2026-04-13 21:42 | 32.88691 | -88.80171 | 43268 ft | 479 kts | 244° |
| 2026-04-13 21:43 | 32.85535 | -88.87235 | 43305 ft | 479 kts | 244° |
| 2026-04-13 21:43 | 32.82401 | -88.94237 | 43291 ft | 478 kts | 243° |
| 2026-04-13 21:44 | 32.79253 | -89.01255 | 43272 ft | 478 kts | 243° |
| 2026-04-13 21:44 | 32.76113 | -89.08243 | 43268 ft | 479 kts | 244° |
| 2026-04-13 21:45 | 32.72981 | -89.15197 | 43291 ft | 479 kts | 244° |
| 2026-04-13 21:45 | 32.69814 | -89.22218 | 43283 ft | 479 kts | 244° |
| 2026-04-13 21:46 | 32.66654 | -89.29208 | 43252 ft | 479 kts | 244° |
| 2026-04-13 21:46 | 32.63495 | -89.36184 | 43171 ft | 479 kts | 244° |
| 2026-04-13 21:47 | 32.60597 | -89.43282 | 43190 ft | 478 kts | 246° |
| 2026-04-13 21:47 | 32.57703 | -89.50417 | 43165 ft | 478 kts | 246° |
| 2026-04-13 21:48 | 32.54818 | -89.57507 | 43203 ft | 478 kts | 246° |
| 2026-04-13 21:48 | 32.51884 | -89.64700 | 43172 ft | 479 kts | 246° |
| 2026-04-13 21:49 | 32.48960 | -89.71855 | 43193 ft | 477 kts | 245° |
| 2026-04-13 21:49 | 32.46052 | -89.78957 | 43189 ft | 478 kts | 245° |
| 2026-04-13 21:50 | 32.43137 | -89.86061 | 43256 ft | 478 kts | 245° |
| 2026-04-13 21:50 | 32.40213 | -89.93175 | 43258 ft | 478 kts | 245° |
| 2026-04-13 21:51 | 32.37329 | -90.00176 | 43248 ft | 477 kts | 245° |
| 2026-04-13 21:51 | 32.34385 | -90.07307 | 43242 ft | 477 kts | 245° |
| 2026-04-13 21:52 | 32.31462 | -90.14377 | 43238 ft | 477 kts | 245° |
| 2026-04-13 21:52 | 32.28535 | -90.21440 | 43259 ft | 477 kts | 245° |
| 2026-04-13 21:53 | 32.25581 | -90.28554 | 43247 ft | 477 kts | 245° |
| 2026-04-13 21:53 | 32.22645 | -90.35609 | 43258 ft | 478 kts | 246° |
| 2026-04-13 21:54 | 32.19680 | -90.42722 | 43238 ft | 478 kts | 245° |
| 2026-04-13 21:54 | 32.16723 | -90.49801 | 43242 ft | 478 kts | 246° |
| 2026-04-13 21:55 | 32.13753 | -90.56895 | 43201 ft | 478 kts | 245° |
| 2026-04-13 21:55 | 32.10780 | -90.63985 | 43162 ft | 479 kts | 245° |
| 2026-04-13 21:56 | 32.07838 | -90.70988 | 43145 ft | 480 kts | 245° |
| 2026-04-13 21:56 | 32.04859 | -90.78062 | 43193 ft | 479 kts | 245° |
| 2026-04-13 21:57 | 32.01886 | -90.85108 | 43155 ft | 480 kts | 245° |
| 2026-04-13 21:57 | 31.98897 | -90.92181 | 43140 ft | 481 kts | 245° |
| 2026-04-13 21:58 | 31.95906 | -90.99242 | 43163 ft | 481 kts | 245° |
| 2026-04-13 21:58 | 31.92910 | -91.06303 | 43163 ft | 480 kts | 245° |
| 2026-04-13 21:59 | 31.89906 | -91.13367 | 43155 ft | 480 kts | 245° |
| 2026-04-13 21:59 | 31.87013 | -91.19886 | 43161 ft | 481 kts | 243° |
| 2026-04-13 22:00 | 31.84294 | -91.25743 | 43170 ft | 479 kts | 243° |
| 2026-04-13 22:00 | 31.81084 | -91.32661 | 43185 ft | 479 kts | 243° |
| 2026-04-13 22:01 | 31.77877 | -91.39555 | 43178 ft | 480 kts | 243° |
| 2026-04-13 22:01 | 31.74667 | -91.46446 | 43157 ft | 479 kts | 243° |
| 2026-04-13 22:02 | 31.71457 | -91.53323 | 43142 ft | 479 kts | 243° |
| 2026-04-13 22:02 | 31.68221 | -91.60246 | 43116 ft | 479 kts | 243° |
| 2026-04-13 22:03 | 31.65044 | -91.67027 | 43151 ft | 478 kts | 243° |
| 2026-04-13 22:03 | 31.62048 | -91.73413 | 43168 ft | 479 kts | 243° |
| 2026-04-13 22:04 | 31.58812 | -91.80298 | 43150 ft | 478 kts | 243° |
| 2026-04-13 22:04 | 31.55582 | -91.87156 | 43141 ft | 478 kts | 243° |
| 2026-04-13 22:05 | 31.52332 | -91.94046 | 43131 ft | 478 kts | 243° |
| 2026-04-13 22:05 | 31.49103 | -92.00877 | 43145 ft | 478 kts | 243° |
| 2026-04-13 22:06 | 31.45861 | -92.07723 | 43156 ft | 477 kts | 243° |
| 2026-04-13 22:06 | 31.42618 | -92.14560 | 43186 ft | 478 kts | 243° |
| 2026-04-13 22:07 | 31.39372 | -92.21390 | 43200 ft | 477 kts | 243° |
| 2026-04-13 22:07 | 31.36124 | -92.28213 | 43210 ft | 478 kts | 243° |
| 2026-04-13 22:08 | 31.32867 | -92.35040 | 43203 ft | 478 kts | 243° |
| 2026-04-13 22:08 | 31.29609 | -92.41859 | 43215 ft | 477 kts | 243° |
| 2026-04-13 22:09 | 31.26337 | -92.48694 | 43194 ft | 477 kts | 243° |
| 2026-04-13 22:09 | 31.22541 | -92.55084 | 43197 ft | 479 kts | 237° |
| 2026-04-13 22:10 | 31.18555 | -92.61468 | 43215 ft | 479 kts | 236° |
| 2026-04-13 22:10 | 31.14744 | -92.67551 | 43226 ft | 479 kts | 236° |
| 2026-04-13 22:11 | 31.10766 | -92.73890 | 43214 ft | 480 kts | 236° |
| 2026-04-13 22:11 | 31.06767 | -92.80253 | 43193 ft | 480 kts | 236° |
| 2026-04-13 22:12 | 31.02756 | -92.86622 | 43179 ft | 479 kts | 236° |
| 2026-04-13 22:12 | 30.98780 | -92.92926 | 43127 ft | 479 kts | 236° |
| 2026-04-13 22:13 | 30.94800 | -92.99230 | 43179 ft | 480 kts | 236° |
| 2026-04-13 22:13 | 30.90817 | -93.05524 | 43127 ft | 479 kts | 236° |
| 2026-04-13 22:14 | 30.87101 | -93.11389 | 43155 ft | 480 kts | 236° |
| 2026-04-13 22:14 | 30.83515 | -93.17040 | 43224 ft | 479 kts | 236° |
| 2026-04-13 22:15 | 30.79576 | -93.23240 | 43233 ft | 480 kts | 236° |
| 2026-04-13 22:15 | 30.76283 | -93.28413 | 43229 ft | 479 kts | 236° |
| 2026-04-13 22:16 | 30.72287 | -93.34683 | 43234 ft | 479 kts | 236° |
| 2026-04-13 22:16 | 30.68298 | -93.40933 | 43204 ft | 480 kts | 236° |
| 2026-04-13 22:17 | 30.64296 | -93.47192 | 43149 ft | 481 kts | 236° |
| 2026-04-13 22:17 | 30.60536 | -93.53065 | 43132 ft | 480 kts | 236° |
| 2026-04-13 22:18 | 30.57003 | -93.58574 | 43149 ft | 480 kts | 236° |
| 2026-04-13 22:18 | 30.52953 | -93.64879 | 43125 ft | 480 kts | 236° |
| 2026-04-13 22:19 | 30.49161 | -93.70775 | 43117 ft | 480 kts | 235° |
| 2026-04-13 22:19 | 30.45152 | -93.77000 | 43170 ft | 480 kts | 235° |
| 2026-04-13 22:20 | 30.41157 | -93.83191 | 43119 ft | 480 kts | 235° |
| 2026-04-13 22:20 | 30.37130 | -93.89424 | 43147 ft | 481 kts | 235° |
| 2026-04-13 22:21 | 30.33402 | -93.95185 | 43146 ft | 481 kts | 235° |
| 2026-04-13 22:21 | 30.29363 | -94.01416 | 43131 ft | 480 kts | 235° |
| 2026-04-13 22:22 | 30.25322 | -94.07643 | 43141 ft | 481 kts | 235° |
| 2026-04-13 22:22 | 30.21264 | -94.13883 | 43221 ft | 481 kts | 235° |
| 2026-04-13 22:23 | 30.17197 | -94.20129 | 43191 ft | 480 kts | 235° |
| 2026-04-13 22:23 | 30.13467 | -94.25850 | 43209 ft | 481 kts | 235° |
| 2026-04-13 22:24 | 30.09433 | -94.32027 | 43206 ft | 480 kts | 235° |
| 2026-04-13 22:24 | 30.05409 | -94.38180 | 43182 ft | 478 kts | 236° |
| 2026-04-13 22:25 | 30.01334 | -94.44401 | 43125 ft | 480 kts | 236° |
| 2026-04-13 22:25 | 29.97300 | -94.50550 | 43155 ft | 479 kts | 235° |
| 2026-04-13 22:26 | 29.93409 | -94.56471 | 43118 ft | 480 kts | 235° |
| 2026-04-13 22:26 | 29.89494 | -94.62421 | 43136 ft | 479 kts | 236° |
| 2026-04-13 22:27 | 29.85475 | -94.68520 | 43124 ft | 480 kts | 235° |
| 2026-04-13 22:27 | 29.81371 | -94.74737 | 43121 ft | 479 kts | 235° |
| 2026-04-13 22:28 | 29.77274 | -94.80937 | 43123 ft | 479 kts | 235° |
| 2026-04-13 22:28 | 29.73198 | -94.87093 | 43155 ft | 479 kts | 235° |
| 2026-04-13 22:29 | 29.69111 | -94.93257 | 43155 ft | 479 kts | 235° |
| 2026-04-13 22:29 | 29.65038 | -94.99390 | 43168 ft | 478 kts | 235° |
| 2026-04-13 22:30 | 29.60966 | -95.05514 | 43196 ft | 478 kts | 235° |
| 2026-04-13 22:30 | 29.56876 | -95.11655 | 43168 ft | 478 kts | 235° |
| 2026-04-13 22:31 | 29.52784 | -95.17791 | 43174 ft | 479 kts | 235° |
| 2026-04-13 22:31 | 29.48671 | -95.23947 | 43160 ft | 478 kts | 235° |
| 2026-04-13 22:32 | 29.44566 | -95.30084 | 43187 ft | 478 kts | 235° |
| 2026-04-13 22:32 | 29.40459 | -95.36213 | 43168 ft | 479 kts | 235° |
| 2026-04-13 22:33 | 29.36389 | -95.42279 | 43170 ft | 478 kts | 235° |
| 2026-04-13 22:33 | 29.32315 | -95.48342 | 43152 ft | 477 kts | 235° |
| 2026-04-13 22:34 | 29.24095 | -95.60545 | 43147 ft | 479 kts | 235° |
| 2026-04-13 22:35 | 29.20069 | -95.66511 | 43125 ft | 478 kts | 235° |
| 2026-04-13 22:35 | 29.16273 | -95.72127 | 43146 ft | 477 kts | 235° |
| 2026-04-13 22:36 | 29.12174 | -95.78182 | 43137 ft | 478 kts | 235° |
| 2026-04-13 22:36 | 29.08114 | -95.84174 | 43160 ft | 477 kts | 235° |
| 2026-04-13 22:37 | 29.04042 | -95.90170 | 43130 ft | 477 kts | 235° |
| 2026-04-13 22:37 | 28.99936 | -95.96211 | 43146 ft | 478 kts | 235° |
| 2026-04-13 22:38 | 28.95823 | -96.02253 | 43130 ft | 476 kts | 235° |
| 2026-04-13 22:38 | 28.91738 | -96.08244 | 43110 ft | 476 kts | 235° |
| 2026-04-13 22:39 | 28.88252 | -96.13350 | 43149 ft | 476 kts | 234° |
| 2026-04-13 22:39 | 28.84157 | -96.19340 | 43145 ft | 477 kts | 235° |
| 2026-04-13 22:40 | 28.80070 | -96.25312 | 43139 ft | 476 kts | 235° |
| 2026-04-13 22:40 | 28.76132 | -96.31390 | 43133 ft | 471 kts | 244° |
| 2026-04-13 22:41 | 28.73412 | -96.38210 | 43135 ft | 471 kts | 248° |
| 2026-04-13 22:41 | 28.70686 | -96.45072 | 43102 ft | 471 kts | 248° |
| 2026-04-13 22:42 | 28.67950 | -96.51932 | 43106 ft | 472 kts | 248° |
| 2026-04-13 22:42 | 28.65222 | -96.58762 | 43132 ft | 471 kts | 247° |
| 2026-04-13 22:43 | 28.62489 | -96.65588 | 43140 ft | 472 kts | 247° |
| 2026-04-13 22:43 | 28.59961 | -96.71893 | 43143 ft | 472 kts | 247° |
| 2026-04-13 22:44 | 28.57226 | -96.78703 | 43151 ft | 472 kts | 247° |
| 2026-04-13 22:44 | 28.54477 | -96.85535 | 43144 ft | 471 kts | 247° |
| 2026-04-13 22:45 | 28.51718 | -96.92381 | 43090 ft | 472 kts | 247° |
| 2026-04-13 22:45 | 28.48990 | -96.99137 | 43080 ft | 471 kts | 247° |
| 2026-04-13 22:46 | 28.46233 | -97.05954 | 43095 ft | 472 kts | 247° |
| 2026-04-13 22:46 | 28.43477 | -97.12757 | 43073 ft | 472 kts | 247° |
| 2026-04-13 22:47 | 28.40702 | -97.19592 | 43083 ft | 472 kts | 246° |
| 2026-04-13 22:47 | 28.37932 | -97.26404 | 43060 ft | 471 kts | 246° |
| 2026-04-13 22:48 | 28.35181 | -97.33160 | 43053 ft | 471 kts | 246° |
| 2026-04-13 22:48 | 28.32408 | -97.39957 | 43081 ft | 472 kts | 246° |
| 2026-04-13 22:49 | 28.29628 | -97.46757 | 43083 ft | 473 kts | 246° |
| 2026-04-13 22:49 | 28.26844 | -97.53557 | 43061 ft | 472 kts | 247° |
| 2026-04-13 22:50 | 28.24034 | -97.60409 | 43061 ft | 471 kts | 246° |
| 2026-04-13 22:50 | 28.21237 | -97.67215 | 43079 ft | 471 kts | 246° |
| 2026-04-13 22:51 | 28.18952 | -97.72769 | 43107 ft | 471 kts | 246° |
| 2026-04-13 22:51 | 28.16162 | -97.79539 | 43093 ft | 472 kts | 246° |
| 2026-04-13 22:52 | 28.13390 | -97.86253 | 43091 ft | 471 kts | 246° |
| 2026-04-13 22:52 | 28.10605 | -97.92986 | 43048 ft | 471 kts | 246° |
| 2026-04-13 22:53 | 28.07820 | -97.99710 | 43064 ft | 471 kts | 246° |
| 2026-04-13 22:53 | 28.05025 | -98.06444 | 43048 ft | 472 kts | 246° |
| 2026-04-13 22:54 | 28.02216 | -98.13203 | 43089 ft | 472 kts | 246° |
| 2026-04-13 22:54 | 27.99424 | -98.19909 | 43062 ft | 471 kts | 246° |
| 2026-04-13 22:55 | 27.96629 | -98.26611 | 43096 ft | 471 kts | 246° |
| 2026-04-13 22:55 | 27.93826 | -98.33321 | 43055 ft | 471 kts | 246° |
| 2026-04-13 22:56 | 27.91005 | -98.40060 | 43071 ft | 471 kts | 246° |
| 2026-04-13 22:56 | 27.88462 | -98.46129 | 43034 ft | 471 kts | 246° |
| 2026-04-13 22:57 | 27.85739 | -98.52615 | 43032 ft | 470 kts | 246° |
| 2026-04-13 22:57 | 27.82937 | -98.59278 | 43064 ft | 470 kts | 246° |
| 2026-04-13 22:58 | 27.80120 | -98.65968 | 43051 ft | 470 kts | 246° |
| 2026-04-13 22:58 | 27.77345 | -98.72545 | 43045 ft | 470 kts | 246° |
| 2026-04-13 22:59 | 27.74513 | -98.79248 | 43059 ft | 470 kts | 245° |
| 2026-04-13 22:59 | 27.71672 | -98.85960 | 43049 ft | 470 kts | 245° |
| 2026-04-13 23:00 | 27.68837 | -98.92647 | 43032 ft | 468 kts | 246° |
| 2026-04-13 23:00 | 27.66005 | -98.99314 | 43036 ft | 469 kts | 245° |
| 2026-04-13 23:01 | 27.63185 | -99.05944 | 43038 ft | 470 kts | 246° |
| 2026-04-13 23:01 | 27.60347 | -99.12605 | 43037 ft | 468 kts | 245° |
| 2026-04-13 23:02 | 27.57525 | -99.19215 | 43057 ft | 469 kts | 245° |
| 2026-04-13 23:02 | 27.54676 | -99.25881 | 43057 ft | 468 kts | 246° |
| 2026-04-13 23:03 | 27.51841 | -99.32503 | 43086 ft | 468 kts | 246° |
| 2026-04-13 23:03 | 27.49012 | -99.39098 | 43076 ft | 467 kts | 245° |
| 2026-04-13 23:04 | 27.46729 | -99.45987 | 43091 ft | 465 kts | 254° |
| 2026-04-13 23:04 | 27.44867 | -99.52978 | 43074 ft | 464 kts | 254° |
| 2026-04-13 23:05 | 27.43070 | -99.59962 | 43078 ft | 465 kts | 255° |
| 2026-04-13 23:05 | 27.41332 | -99.67031 | 43088 ft | 464 kts | 255° |
| 2026-04-13 23:06 | 27.39576 | -99.74149 | 43083 ft | 464 kts | 255° |
| 2026-04-13 23:06 | 27.37846 | -99.81140 | 43051 ft | 464 kts | 255° |
| 2026-04-13 23:07 | 27.36108 | -99.88152 | 43015 ft | 463 kts | 255° |
| 2026-04-13 23:07 | 27.34381 | -99.95100 | 43011 ft | 464 kts | 255° |
| 2026-04-13 23:08 | 27.32636 | -100.02106 | 43012 ft | 462 kts | 255° |
| 2026-04-13 23:08 | 27.30884 | -100.09099 | 43009 ft | 464 kts | 255° |
| 2026-04-13 23:09 | 27.29132 | -100.16079 | 43007 ft | 462 kts | 255° |
| 2026-04-13 23:09 | 27.27388 | -100.23016 | 43005 ft | 462 kts | 254° |
| 2026-04-13 23:10 | 27.25633 | -100.29977 | 43006 ft | 462 kts | 254° |
| 2026-04-13 23:10 | 27.23873 | -100.36938 | 43004 ft | 462 kts | 254° |
| 2026-04-13 23:11 | 27.22116 | -100.43883 | 43010 ft | 461 kts | 254° |
| 2026-04-13 23:11 | 27.20353 | -100.50834 | 43014 ft | 461 kts | 254° |
| 2026-04-13 23:12 | 27.18596 | -100.57742 | 43017 ft | 462 kts | 255° |
| 2026-04-13 23:12 | 27.16822 | -100.64710 | 43031 ft | 461 kts | 254° |
| 2026-04-13 23:13 | 27.15046 | -100.71660 | 43059 ft | 459 kts | 254° |
| 2026-04-13 23:13 | 27.13271 | -100.78600 | 43069 ft | 460 kts | 254° |
| 2026-04-13 23:14 | 27.11515 | -100.85455 | 43067 ft | 460 kts | 254° |
| 2026-04-13 23:14 | 27.09726 | -100.92423 | 43071 ft | 459 kts | 254° |
| 2026-04-13 23:15 | 27.07952 | -100.99318 | 43066 ft | 457 kts | 253° |
| 2026-04-13 23:15 | 27.06178 | -101.06194 | 43076 ft | 457 kts | 254° |
| 2026-04-13 23:16 | 27.04396 | -101.13086 | 43062 ft | 458 kts | 253° |
| 2026-04-13 23:16 | 27.02603 | -101.20011 | 43080 ft | 458 kts | 253° |
| 2026-04-13 23:17 | 27.00802 | -101.26945 | 43081 ft | 458 kts | 254° |
| 2026-04-13 23:17 | 26.99013 | -101.33823 | 43119 ft | 457 kts | 253° |
| 2026-04-13 23:18 | 26.97223 | -101.40686 | 43096 ft | 456 kts | 254° |
| 2026-04-13 23:18 | 26.95133 | -101.47405 | 43092 ft | 456 kts | 241° |
| 2026-04-13 23:19 | 26.91336 | -101.53070 | 43104 ft | 459 kts | 234° |
| 2026-04-13 23:19 | 26.88223 | -101.57497 | 43107 ft | 459 kts | 234° |
| 2026-04-13 23:20 | 26.84519 | -101.62753 | 43112 ft | 459 kts | 234° |
| 2026-04-13 23:20 | 26.80513 | -101.68427 | 43145 ft | 457 kts | 233° |
| 2026-04-13 23:21 | 26.76563 | -101.74017 | 43188 ft | 458 kts | 233° |
| 2026-04-13 23:21 | 26.72567 | -101.79663 | 43153 ft | 458 kts | 233° |
| 2026-04-13 23:22 | 26.68624 | -101.85227 | 43189 ft | 456 kts | 233° |
| 2026-04-13 23:22 | 26.64646 | -101.90836 | 43181 ft | 457 kts | 233° |
| 2026-04-13 23:23 | 26.60707 | -101.96380 | 43187 ft | 457 kts | 233° |
| 2026-04-13 23:23 | 26.56739 | -102.01958 | 43195 ft | 456 kts | 233° |
| 2026-04-13 23:24 | 26.52757 | -102.07549 | 43194 ft | 456 kts | 233° |
| 2026-04-13 23:24 | 26.46805 | -102.15897 | 43223 ft | 456 kts | 233° |
| 2026-04-13 23:25 | 26.42823 | -102.21469 | 43235 ft | 456 kts | 233° |
| 2026-04-13 23:25 | 26.38855 | -102.27019 | 43247 ft | 455 kts | 233° |
| 2026-04-13 23:26 | 26.34885 | -102.32562 | 43248 ft | 455 kts | 233° |
| 2026-04-13 23:26 | 26.30903 | -102.38116 | 43237 ft | 456 kts | 233° |
| 2026-04-13 23:27 | 26.26919 | -102.43666 | 43235 ft | 456 kts | 233° |
| 2026-04-13 23:27 | 26.22919 | -102.49233 | 43219 ft | 455 kts | 233° |
| 2026-04-13 23:28 | 26.18464 | -102.54279 | 43211 ft | 458 kts | 225° |
| 2026-04-13 23:28 | 26.13675 | -102.59026 | 43184 ft | 458 kts | 224° |
| 2026-04-13 23:29 | 26.08877 | -102.63754 | 43171 ft | 457 kts | 224° |
| 2026-04-13 23:29 | 26.04067 | -102.68490 | 43190 ft | 458 kts | 224° |
| 2026-04-13 23:30 | 25.99294 | -102.73182 | 43187 ft | 457 kts | 224° |
| 2026-04-13 23:30 | 25.94483 | -102.77907 | 43180 ft | 456 kts | 224° |
| 2026-04-13 23:31 | 25.89663 | -102.82634 | 43182 ft | 456 kts | 224° |
| 2026-04-13 23:31 | 25.85257 | -102.86952 | 43181 ft | 456 kts | 224° |
| 2026-04-13 23:32 | 25.80435 | -102.91671 | 43180 ft | 457 kts | 224° |
| 2026-04-13 23:32 | 25.75636 | -102.96365 | 43185 ft | 457 kts | 224° |
| 2026-04-13 23:33 | 25.70857 | -103.01031 | 43187 ft | 457 kts | 224° |
| 2026-04-13 23:33 | 25.66038 | -103.05733 | 43184 ft | 457 kts | 224° |
| 2026-04-13 23:34 | 25.61218 | -103.10429 | 43196 ft | 457 kts | 224° |
| 2026-04-13 23:34 | 25.56427 | -103.15091 | 43194 ft | 457 kts | 224° |
| 2026-04-13 23:35 | 25.51604 | -103.19782 | 43176 ft | 458 kts | 224° |
| 2026-04-13 23:35 | 25.46789 | -103.24457 | 43168 ft | 458 kts | 224° |
| 2026-04-13 23:36 | 25.41972 | -103.29129 | 43152 ft | 458 kts | 224° |
| 2026-04-13 23:36 | 25.37171 | -103.33782 | 43150 ft | 457 kts | 224° |
| 2026-04-13 23:37 | 25.32335 | -103.38464 | 43169 ft | 459 kts | 224° |
| 2026-04-13 23:37 | 25.27484 | -103.43153 | 43250 ft | 458 kts | 224° |
| 2026-04-13 23:38 | 25.22654 | -103.47819 | 43230 ft | 459 kts | 224° |
| 2026-04-13 23:38 | 25.17813 | -103.52489 | 43240 ft | 458 kts | 224° |
| 2026-04-13 23:39 | 25.12980 | -103.57147 | 43278 ft | 460 kts | 224° |
| 2026-04-13 23:39 | 25.08140 | -103.61807 | 43301 ft | 460 kts | 223° |
| 2026-04-13 23:40 | 25.03249 | -103.66509 | 43302 ft | 460 kts | 223° |
| 2026-04-13 23:40 | 24.98410 | -103.71156 | 43306 ft | 459 kts | 223° |
| 2026-04-13 23:41 | 24.93550 | -103.75820 | 43315 ft | 460 kts | 223° |
| 2026-04-13 23:41 | 24.88682 | -103.80486 | 43339 ft | 459 kts | 223° |
| 2026-04-13 23:42 | 24.83829 | -103.85132 | 43357 ft | 460 kts | 223° |
| 2026-04-13 23:42 | 24.78995 | -103.89755 | 43358 ft | 459 kts | 223° |
| 2026-04-13 23:43 | 24.74150 | -103.94383 | 43369 ft | 460 kts | 223° |
| 2026-04-13 23:43 | 24.69285 | -103.99026 | 43364 ft | 460 kts | 223° |
| 2026-04-13 23:44 | 24.64428 | -104.03657 | 43385 ft | 459 kts | 223° |
| 2026-04-13 23:44 | 24.59548 | -104.08304 | 43384 ft | 460 kts | 223° |
| 2026-04-13 23:45 | 24.54734 | -104.12882 | 43408 ft | 459 kts | 223° |
| 2026-04-13 23:45 | 24.49880 | -104.17497 | 43419 ft | 459 kts | 223° |
| 2026-04-13 23:46 | 24.45023 | -104.22106 | 43430 ft | 459 kts | 223° |
| 2026-04-13 23:46 | 24.40158 | -104.26721 | 43450 ft | 459 kts | 223° |
| 2026-04-13 23:47 | 24.35290 | -104.31332 | 43452 ft | 459 kts | 223° |
| 2026-04-13 23:47 | 24.32842 | -104.33647 | 43339 ft | 459 kts | 223° |
| 2026-04-13 23:47 | 24.30399 | -104.35959 | 43284 ft | 458 kts | 223° |
| 2026-04-13 23:48 | 24.25492 | -104.40599 | 43284 ft | 458 kts | 223° |
| 2026-04-13 23:48 | 24.20615 | -104.45203 | 43269 ft | 459 kts | 223° |
| 2026-04-13 23:49 | 24.15748 | -104.49809 | 43259 ft | 458 kts | 224° |
| 2026-04-13 23:49 | 24.13734 | -104.52511 | 43295 ft | 457 kts | 239° |
| 2026-04-13 23:49 | 24.12413 | -104.55766 | 43294 ft | 458 kts | 249° |
| 2026-04-13 23:50 | 24.10231 | -104.62417 | 43284 ft | 459 kts | 249° |
| 2026-04-13 23:50 | 24.08098 | -104.68858 | 43294 ft | 459 kts | 249° |
| 2026-04-13 23:51 | 24.05929 | -104.75395 | 43312 ft | 459 kts | 249° |
| 2026-04-13 23:51 | 24.03737 | -104.81992 | 43498 ft | 459 kts | 248° |
| 2026-04-13 23:52 | 24.02634 | -104.85307 | 43338 ft | 460 kts | 248° |
| 2026-04-13 23:52 | 24.01543 | -104.88580 | 43559 ft | 459 kts | 249° |
| 2026-04-13 23:52 | 23.99361 | -104.95129 | 43527 ft | 458 kts | 248° |
| 2026-04-13 23:53 | 23.98595 | -104.97420 | 43518 ft | 459 kts | 248° |
| 2026-04-13 23:53 | 23.96391 | -105.04017 | 43533 ft | 460 kts | 249° |
| 2026-04-13 23:54 | 23.94190 | -105.10593 | 43531 ft | 460 kts | 248° |
| 2026-04-13 23:54 | 23.91986 | -105.17165 | 43515 ft | 459 kts | 248° |
| 2026-04-13 23:55 | 23.89770 | -105.23763 | 43483 ft | 459 kts | 248° |
| 2026-04-13 23:55 | 23.87557 | -105.30344 | 43444 ft | 459 kts | 249° |
| 2026-04-13 23:56 | 23.85339 | -105.36930 | 43516 ft | 459 kts | 248° |
| 2026-04-13 23:56 | 23.83130 | -105.43477 | 43443 ft | 458 kts | 248° |
| 2026-04-13 23:57 | 23.80912 | -105.50038 | 43475 ft | 459 kts | 248° |
| 2026-04-13 23:57 | 23.78711 | -105.56544 | 43454 ft | 457 kts | 248° |
| 2026-04-13 23:58 | 23.76483 | -105.63113 | 43461 ft | 458 kts | 249° |
| 2026-04-13 23:58 | 23.74426 | -105.69171 | 43457 ft | 458 kts | 248° |
| 2026-04-13 23:59 | 23.72208 | -105.75696 | 43404 ft | 458 kts | 248° |
| 2026-04-13 23:59 | 23.69989 | -105.82209 | 43338 ft | 457 kts | 248° |
| 2026-04-14 00:00 | 23.67758 | -105.88747 | 43239 ft | 458 kts | 248° |
| 2026-04-14 00:00 | 23.65522 | -105.95293 | 43138 ft | 458 kts | 248° |
| 2026-04-14 00:01 | 23.63277 | -106.01854 | 43065 ft | 459 kts | 248° |
| 2026-04-14 00:01 | 23.61032 | -106.08403 | 43071 ft | 459 kts | 248° |
| 2026-04-14 00:02 | 23.58781 | -106.14960 | 43054 ft | 458 kts | 248° |
| 2026-04-14 00:02 | 23.56550 | -106.21452 | 43025 ft | 459 kts | 248° |
| 2026-04-14 00:03 | 23.54289 | -106.28014 | 43019 ft | 459 kts | 248° |
| 2026-04-14 00:03 | 23.52161 | -106.34187 | 42984 ft | 459 kts | 248° |
| 2026-04-14 00:04 | 23.49894 | -106.40747 | 42968 ft | 459 kts | 248° |
| 2026-04-14 00:04 | 23.47635 | -106.47280 | 42954 ft | 459 kts | 248° |
| 2026-04-14 00:05 | 23.45373 | -106.53809 | 42932 ft | 460 kts | 248° |
| 2026-04-14 00:05 | 23.43108 | -106.60337 | 42934 ft | 461 kts | 248° |
| 2026-04-14 00:06 | 23.40835 | -106.66876 | 42954 ft | 461 kts | 248° |
| 2026-04-14 00:06 | 23.38571 | -106.73380 | 42951 ft | 459 kts | 248° |
| 2026-04-14 00:07 | 23.36306 | -106.79876 | 42954 ft | 459 kts | 248° |
| 2026-04-14 00:07 | 23.34208 | -106.85889 | 42941 ft | 451 kts | 248° |
| 2026-04-14 00:08 | 23.32019 | -106.92151 | 42942 ft | 442 kts | 248° |
| 2026-04-14 00:08 | 23.29825 | -106.98418 | 42939 ft | 442 kts | 248° |
| 2026-04-14 00:09 | 23.27629 | -107.04675 | 42464 ft | 445 kts | 248° |
| 2026-04-14 00:09 | 23.26522 | -107.07832 | 41973 ft | 446 kts | 248° |
| 2026-04-14 00:09 | 23.25392 | -107.11047 | 41489 ft | 445 kts | 248° |
| 2026-04-14 00:10 | 23.24291 | -107.14180 | 40992 ft | 446 kts | 248° |
| 2026-04-14 00:10 | 23.23171 | -107.17362 | 40520 ft | 445 kts | 248° |
| 2026-04-14 00:10 | 23.22039 | -107.20577 | 40005 ft | 447 kts | 248° |
| 2026-04-14 00:10 | 23.20919 | -107.23757 | 39491 ft | 448 kts | 248° |
| 2026-04-14 00:11 | 23.19761 | -107.27040 | 39011 ft | 450 kts | 248° |
| 2026-04-14 00:11 | 23.18621 | -107.30273 | 38491 ft | 450 kts | 248° |
| 2026-04-14 00:11 | 23.17447 | -107.33490 | 38188 ft | 447 kts | 248° |
| 2026-04-14 00:11 | 23.16705 | -107.36823 | 38168 ft | 453 kts | 263° |
| 2026-04-14 00:12 | 23.16784 | -107.43814 | 38191 ft | 458 kts | 268° |
| 2026-04-14 00:12 | 23.16815 | -107.47322 | 37942 ft | 461 kts | 268° |
| 2026-04-14 00:12 | 23.16832 | -107.50810 | 37460 ft | 462 kts | 268° |
| 2026-04-14 00:13 | 23.16846 | -107.54284 | 36972 ft | 462 kts | 268° |
| 2026-04-14 00:13 | 23.16857 | -107.57733 | 36473 ft | 460 kts | 268° |
| 2026-04-14 00:13 | 23.16867 | -107.61210 | 35978 ft | 460 kts | 268° |
| 2026-04-14 00:13 | 23.16876 | -107.64699 | 35455 ft | 460 kts | 268° |
| 2026-04-14 00:14 | 23.16883 | -107.67475 | 35068 ft | 462 kts | 267° |
| 2026-04-14 00:14 | 23.16890 | -107.70966 | 34549 ft | 465 kts | 268° |
| 2026-04-14 00:14 | 23.16898 | -107.74477 | 34055 ft | 467 kts | 268° |
| 2026-04-14 00:14 | 23.16905 | -107.78069 | 33535 ft | 469 kts | 268° |
| 2026-04-14 00:15 | 23.16909 | -107.81629 | 33044 ft | 470 kts | 268° |
| 2026-04-14 00:15 | 23.16914 | -107.85178 | 32545 ft | 472 kts | 268° |
| 2026-04-14 00:15 | 23.16919 | -107.88738 | 32028 ft | 473 kts | 268° |
| 2026-04-14 00:15 | 23.16922 | -107.92323 | 31493 ft | 475 kts | 268° |
| 2026-04-14 00:16 | 23.16925 | -107.95828 | 30979 ft | 457 kts | 268° |
| 2026-04-14 00:16 | 23.16927 | -107.99195 | 30498 ft | 442 kts | 268° |
| 2026-04-14 00:16 | 23.16928 | -108.02505 | 30012 ft | 436 kts | 268° |
| 2026-04-14 00:16 | 23.16927 | -108.05803 | 29542 ft | 433 kts | 268° |
| 2026-04-14 00:17 | 23.16927 | -108.09096 | 29052 ft | 430 kts | 268° |
| 2026-04-14 00:17 | 23.16925 | -108.12337 | 28581 ft | 428 kts | 268° |
| 2026-04-14 00:17 | 23.16923 | -108.15545 | 28124 ft | 427 kts | 268° |
| 2026-04-14 00:17 | 23.16921 | -108.18767 | 27657 ft | 424 kts | 268° |
| 2026-04-14 00:18 | 23.16919 | -108.21932 | 27187 ft | 420 kts | 268° |
| 2026-04-14 00:18 | 23.16914 | -108.25084 | 26742 ft | 416 kts | 267° |
| 2026-04-14 00:18 | 23.17060 | -108.28200 | 25870 ft | 412 kts | 274° |
| 2026-04-14 00:18 | 23.17438 | -108.31235 | 24893 ft | 408 kts | 275° |
| 2026-04-14 00:19 | 23.17825 | -108.34291 | 24054 ft | 403 kts | 275° |
| 2026-04-14 00:19 | 23.18209 | -108.37294 | 23518 ft | 401 kts | 275° |
| 2026-04-14 00:19 | 23.18590 | -108.40276 | 23063 ft | 401 kts | 275° |
| 2026-04-14 00:19 | 23.18974 | -108.43280 | 22618 ft | 398 kts | 275° |
| 2026-04-14 00:20 | 23.19355 | -108.46269 | 22167 ft | 397 kts | 275° |
| 2026-04-14 00:20 | 23.19733 | -108.49238 | 21741 ft | 396 kts | 275° |
| 2026-04-14 00:20 | 23.20108 | -108.52175 | 21308 ft | 391 kts | 275° |
| 2026-04-14 00:20 | 23.20481 | -108.55106 | 20870 ft | 388 kts | 275° |
| 2026-04-14 00:21 | 23.20846 | -108.57991 | 20442 ft | 387 kts | 275° |
| 2026-04-14 00:21 | 23.21213 | -108.60885 | 20023 ft | 385 kts | 275° |
| 2026-04-14 00:21 | 23.21580 | -108.63783 | 19588 ft | 382 kts | 275° |
| 2026-04-14 00:21 | 23.21943 | -108.66665 | 19173 ft | 381 kts | 275° |
| 2026-04-14 00:22 | 23.22306 | -108.69536 | 18755 ft | 379 kts | 275° |
| 2026-04-14 00:22 | 23.22665 | -108.72388 | 18333 ft | 377 kts | 275° |
| 2026-04-14 00:22 | 23.23017 | -108.75181 | 17925 ft | 375 kts | 275° |
| 2026-04-14 00:22 | 23.23370 | -108.77993 | 17506 ft | 373 kts | 275° |
| 2026-04-14 00:23 | 23.23722 | -108.80804 | 17089 ft | 373 kts | 275° |
| 2026-04-14 00:23 | 23.24070 | -108.83585 | 16679 ft | 371 kts | 276° |
| 2026-04-14 00:23 | 23.24420 | -108.86383 | 16271 ft | 370 kts | 276° |
| 2026-04-14 00:23 | 23.24768 | -108.89170 | 15859 ft | 370 kts | 276° |
| 2026-04-14 00:24 | 23.25109 | -108.91908 | 15456 ft | 369 kts | 276° |
| 2026-04-14 00:24 | 23.25454 | -108.94675 | 15043 ft | 367 kts | 276° |
| 2026-04-14 00:24 | 23.25795 | -108.97422 | 14639 ft | 367 kts | 276° |
| 2026-04-14 00:24 | 23.26140 | -109.00203 | 14228 ft | 366 kts | 276° |
| 2026-04-14 00:25 | 23.26479 | -109.02937 | 13802 ft | 365 kts | 276° |
| 2026-04-14 00:25 | 23.26819 | -109.05682 | 13391 ft | 363 kts | 277° |
| 2026-04-14 00:25 | 23.27155 | -109.08398 | 13039 ft | 361 kts | 277° |
| 2026-04-14 00:25 | 23.27488 | -109.11097 | 12639 ft | 359 kts | 277° |
| 2026-04-14 00:26 | 23.27817 | -109.13771 | 12205 ft | 357 kts | 277° |
| 2026-04-14 00:26 | 23.28148 | -109.16469 | 11827 ft | 353 kts | 278° |
| 2026-04-14 00:26 | 23.28474 | -109.19111 | 11456 ft | 353 kts | 278° |
| 2026-04-14 00:26 | 23.28796 | -109.21741 | 11065 ft | 351 kts | 278° |
| 2026-04-14 00:27 | 23.29121 | -109.24393 | 10678 ft | 349 kts | 278° |
| 2026-04-14 00:27 | 23.29439 | -109.26990 | 10300 ft | 346 kts | 279° |
| 2026-04-14 00:27 | 23.29754 | -109.29572 | 9906 ft | 344 kts | 279° |
| 2026-04-14 00:27 | 23.30070 | -109.32157 | 9505 ft | 343 kts | 279° |
| 2026-04-14 00:28 | 23.30385 | -109.34734 | 9137 ft | 341 kts | 279° |
| 2026-04-14 00:28 | 23.30697 | -109.37302 | 8766 ft | 340 kts | 280° |
| 2026-04-14 00:28 | 23.31007 | -109.39847 | 8424 ft | 338 kts | 279° |
| 2026-04-14 00:28 | 23.31316 | -109.42390 | 8011 ft | 338 kts | 279° |
| 2026-04-14 00:29 | 23.31624 | -109.44930 | 7647 ft | 338 kts | 279° |
| 2026-04-14 00:29 | 23.31932 | -109.47478 | 7355 ft | 337 kts | 280° |
| 2026-04-14 00:29 | 23.32238 | -109.50015 | 6901 ft | 335 kts | 280° |
| 2026-04-14 00:29 | 23.32541 | -109.52518 | 6480 ft | 334 kts | 280° |
| 2026-04-14 00:30 | 23.32847 | -109.55058 | 6211 ft | 334 kts | 280° |
| 2026-04-14 00:30 | 23.33149 | -109.57558 | 5813 ft | 333 kts | 279° |
| 2026-04-14 00:30 | 23.33450 | -109.60066 | 5452 ft | 330 kts | 279° |
| 2026-04-14 00:30 | 23.33745 | -109.62535 | 5100 ft | 317 kts | 279° |
| 2026-04-14 00:31 | 23.34001 | -109.64867 | 4734 ft | 306 kts | 275° |
| 2026-04-14 00:31 | 23.33861 | -109.67163 | 4411 ft | 296 kts | 266° |
| 2026-04-14 00:31 | 23.33647 | -109.69339 | 4095 ft | 288 kts | 267° |
| 2026-04-14 00:31 | 23.33244 | -109.71465 | 3786 ft | 283 kts | 247° |
| 2026-04-14 00:32 | 23.30088 | -109.73606 | 3074 ft | 276 kts | 181° |
| 2026-04-14 00:32 | 23.28225 | -109.73481 | 2758 ft | 263 kts | 176° |
| 2026-04-14 00:32 | 23.26374 | -109.73306 | 2412 ft | 262 kts | 175° |
| 2026-04-14 00:33 | 23.24584 | -109.73121 | 2079 ft | 252 kts | 175° |
| 2026-04-14 00:33 | 23.22864 | -109.72935 | 1708 ft | 238 kts | 174° |
| 2026-04-14 00:33 | 23.21335 | -109.72767 | 1434 ft | 203 kts | 174° |
| 2026-04-14 00:33 | 23.20025 | -109.72622 | 1158 ft | 169 kts | 174° |
| 2026-04-14 00:34 | 23.18936 | -109.72500 | 921 ft | 149 kts | 173° |
| 2026-04-14 00:34 | 23.17931 | -109.72385 | 670 ft | 140 kts | 173° |
| 2026-04-14 00:34 | 23.16979 | -109.72279 | 498 ft | 136 kts | 173° |
| 2026-04-14 00:34 | 23.16050 | -109.72175 | 378 ft | 125 kts | 173° |
| 2026-04-14 00:35 | 23.15261 | -109.72084 | 361 ft | 94 kts | 174° |
| 2026-04-14 00:35 | 23.14786 | -109.72031 | 347 ft | 54 kts | 174° |
| 2026-04-14 00:35 | 23.14524 | -109.71890 | 337 ft | 34 kts | 146° |
| 2026-04-14 00:35 | 23.14409 | -109.71784 | 330 ft | 2 kts | 78° |
| 2026-04-14 00:36 | 23.14460 | -109.71789 | 333 ft | 10 kts | 348° |
| 2026-04-14 00:36 | 23.14529 | -109.71799 | 334 ft | 10 kts | 353° |
| 2026-04-14 00:36 | 23.14723 | -109.71820 | 341 ft | 47 kts | 354° |
| 2026-04-14 00:36 | 23.15031 | -109.71852 | 350 ft | 41 kts | 354° |
| 2026-04-14 00:37 | 23.15299 | -109.71879 | 357 ft | 36 kts | 354° |
| 2026-04-14 00:37 | 23.15536 | -109.71903 | 362 ft | 31 kts | 354° |
| 2026-04-14 00:37 | 23.15745 | -109.71925 | 366 ft | 28 kts | 355° |
| 2026-04-14 00:37 | 23.15930 | -109.71944 | 370 ft | 24 kts | 355° |
| 2026-04-14 00:38 | 23.16092 | -109.71961 | 372 ft | 22 kts | 354° |
| 2026-04-14 00:38 | 23.16242 | -109.71977 | 373 ft | 20 kts | 355° |
| 2026-04-14 00:38 | 23.16361 | -109.71987 | 374 ft | 14 kts | 353° |
| 2026-04-14 00:38 | 23.16461 | -109.71999 | 374 ft | 13 kts | 354° |
| 2026-04-14 00:39 | 23.16585 | -109.72012 | 375 ft | 25 kts | 355° |
| 2026-04-14 00:39 | 23.16753 | -109.72004 | 376 ft | 15 kts | 62° |
| 2026-04-14 00:39 | 23.16765 | -109.71895 | 373 ft | 15 kts | 88° |
| 2026-04-14 00:39 | 23.16762 | -109.71807 | 372 ft | 7 kts | 131° |
| 2026-04-14 00:40 | 23.16725 | -109.71818 | 372 ft | 6 kts | 250° |
| 2026-04-14 00:40 | 23.16718 | -109.71840 | 373 ft | 0 kts | 224° |
| 2026-04-14 00:40 | 23.16710 | -109.71839 | 373 ft | 0 kts | 152° |
| 2026-04-14 00:40 | 23.16709 | -109.71834 | 372 ft | 1 kts | 94° |
| 2026-04-14 00:41 | 23.16710 | -109.71824 | 372 ft | 1 kts | 89° |
| 2026-04-14 00:41 | 23.16711 | -109.71835 | 372 ft | 0 kts | 88° |